Ana Sayfa
METAR-TAF:

METAR-TAF

Havaalanları :

Laredo, Teksas, Amerika Birleşik Devletleri

Enlem: 27-33N, Boylam: 099-28W, yükseklik: 155 m

Güncel hava durumu gözlemi

Rapor saat 19:56 UTC de 55 dakika önce yapıldı.
Rüzgar doğudan 5 kt
Sıcaklık 21°C
Nem 33%
Basınç 1020 hPa
Görüş mesafesi: 16.1 km
Açık gökyüzü

METAR: KLRD 161956Z 10005KT 10SM CLR 21/04 A3012 RMK AO2 SLP198 T02110039

Saat: 14:51 (20:51 UTC)

Tahmin

Rapor saat 17:20 UTC de 3 saat ve 31 dakika önce yapıldı.
Ayın 16'si saat 18 UTC'den ayın 17'si saat 18 UTC'ye kadar geçerli Tahmin
Rüzgar güneydoğudan 4 kt
Görüş mesafesi: 10 km
Açık gökyüzü
Geçici
ayın 17'si saat 09 UTC'den ayın 17'si saat 13 UTC'ye kadar
Görüş mesafesi: 8.0 km
3000 ft yükseklikte parçalı çok bulutlu
Pus

TAF: KLRD 161720Z 1618/1718 14004KT P6SM SKC TEMPO 1709/1713 5SM BR BKN030

4.000'den fazla havaalanı için hava durumu gözlemleri ve tahminleri (METAR ve TAF raporları).

Kullanılabilir istasyonlar harita üzerinde sarı ve kırmızı noktalarla gösterilir.

İstasyonun adını görmek için fareyi noktanın üzerinde gezdirin.

Sonrasında hava gözlem ve tahminlerini görmek için tıklayın.

Haritayı değiştirmek için: yaklaştırmak için siyah artı işaretli yeşil düğmeye ve uzaklaştırmak için de eksi işaretli düğmeye hızla tıklayın; bitişik haritalar için yeşil okları kullanın.


METAR-TAF: